Coldwater, Canada
Current Conditions -  °F | °C
As of 7:52 PM on Wednesday 17 Dec 2014 (Local Time) from CYQA Reporting Station
Overcast Overcast  
Wind Chill: 22°   Ceiling: 2300
Heat Index: 30°   Visibility: 9mi
Dew Point: 27°   Wind: 9mph
Humidity: 86%   Direction: 300°WNW
Pressure: 29.86"   Gusts: NA
Location:  44.71°N, 79.64°W
Report Text: CYQA 180052Z AUTO 30008KT 9SM BKN023 OVC032 M01/M03 A2986 RMK SLP123
Loading
Personal Weather Stations






























Interactive Weather Map New forecast layout! Learn more

10-Day Weather Forecast

Advertisements
Track Severe Weather on mobile